Time;durP1;ratioP1;P1;durP2;ratioP2;P2;SDS_P1;SDS_P2;PMS_P1;PMS_P2;Temp;Humidity;BMP_temperature;BMP_pressure;BME280_temperature;BME280_humidity;BME280_pressure;Samples;Min_cycle;Max_cycle;Signal;HPM_P1;HPM_P2
2023/07/08 00:00:17;;;;;;;8.23;5.15;;;20.40;58.20;;;;;;5012596;28;20069;-67
2023/07/08 00:02:48;;;;;;;8.95;5.72;;;20.40;58.40;;;;;;5011384;28;20058;-67
2023/07/08 00:05:24;;;;;;;9.50;5.75;;;20.30;58.40;;;;;;5015983;28;20060;-67
2023/07/08 00:07:53;;;;;;;8.75;6.25;;;20.30;58.20;;;;;;5010582;28;20056;-65
2023/07/08 00:10:22;;;;;;;8.77;5.47;;;20.30;58.40;;;;;;5012611;28;20450;-66
2023/07/08 00:12:51;;;;;;;7.90;6.05;;;20.20;58.80;;;;;;5019733;28;20054;-68
2023/07/08 00:15:19;;;;;;;10.45;6.32;;;20.10;59.00;;;;;;5009057;28;20506;-66
2023/07/08 00:17:46;;;;;;;7.25;5.22;;;20.10;59.30;;;;;;5015356;28;20045;-67
2023/07/08 00:20:15;;;;;;;7.72;5.63;;;20.10;59.40;;;;;;5010517;28;20595;-68
2023/07/08 00:22:43;;;;;;;7.97;5.38;;;20.00;59.50;;;;;;5011141;28;20283;-68
2023/07/08 00:25:11;;;;;;;9.88;6.18;;;20.00;59.60;;;;;;4989897;28;20539;-67
2023/07/08 00:27:38;;;;;;;7.50;5.18;;;19.90;59.80;;;;;;5005850;28;20048;-66
2023/07/08 00:30:21;;;;;;;7.10;5.05;;;19.90;59.90;;;;;;5007883;28;20136;-66
2023/07/08 00:32:53;;;;;;;8.40;5.88;;;19.80;60.40;;;;;;4995120;28;20058;-67
2023/07/08 00:35:22;;;;;;;7.38;5.47;;;19.80;60.50;;;;;;4979216;28;20058;-67
2023/07/08 00:37:52;;;;;;;7.97;5.47;;;19.70;60.60;;;;;;4984890;28;20059;-68
2023/07/08 00:40:22;;;;;;;8.18;5.55;;;19.70;60.70;;;;;;5006243;28;20046;-67
2023/07/08 00:42:49;;;;;;;7.85;5.75;;;19.60;60.70;;;;;;5017665;28;20045;-67
2023/07/08 00:45:33;;;;;;;8.13;5.90;;;19.60;60.60;;;;;;5013041;28;20038;-68
2023/07/08 00:48:08;;;;;;;9.10;5.90;;;19.70;60.10;;;;;;5006867;28;20565;-68
2023/07/08 00:50:35;;;;;;;8.68;5.68;;;19.70;59.80;;;;;;5007954;28;20049;-67
2023/07/08 00:53:32;;;;;;;9.32;5.93;;;19.60;59.80;;;;;;5011583;28;20056;-66
2023/07/08 00:56:04;;;;;;;6.95;5.40;;;19.60;59.90;;;;;;4903131;29;20667;-68
2023/07/08 00:58:35;;;;;;;8.30;5.50;;;19.60;59.80;;;;;;4962423;28;20061;-67
2023/07/08 01:01:05;;;;;;;8.95;5.97;;;19.60;60.10;;;;;;4989097;28;20054;-67
2023/07/08 01:03:34;;;;;;;9.32;5.57;;;19.50;60.10;;;;;;4980421;28;20055;-66
2023/07/08 01:06:01;;;;;;;7.75;5.70;;;19.50;60.30;;;;;;4985437;28;20341;-68
2023/07/08 01:08:30;;;;;;;8.73;6.10;;;19.40;60.50;;;;;;4978113;28;20540;-66
2023/07/08 01:11:02;;;;;;;9.13;5.47;;;19.30;60.70;;;;;;4987223;28;20056;-67
2023/07/08 01:13:34;;;;;;;9.57;5.72;;;19.40;60.70;;;;;;5002214;28;20054;-67
2023/07/08 01:16:01;;;;;;;10.18;6.00;;;19.30;60.80;;;;;;5006353;28;20054;-67
2023/07/08 01:18:29;;;;;;;8.13;5.63;;;19.30;60.70;;;;;;5012864;28;20061;-66
2023/07/08 01:20:56;;;;;;;8.45;5.28;;;19.30;60.50;;;;;;5016629;28;20060;-67
2023/07/08 01:23:25;;;;;;;7.60;5.43;;;19.30;60.20;;;;;;4993839;28;20403;-67
2023/07/08 01:25:52;;;;;;;7.43;5.13;;;19.30;60.10;;;;;;4970555;28;20058;-69
2023/07/08 01:28:20;;;;;;;8.15;5.10;;;19.30;60.10;;;;;;4984416;28;20422;-67
2023/07/08 01:30:51;;;;;;;7.33;5.53;;;19.30;59.90;;;;;;4991967;28;20050;-68
2023/07/08 01:33:21;;;;;;;7.40;5.05;;;19.30;59.50;;;;;;5003348;28;20405;-67
2023/07/08 01:35:50;;;;;;;7.63;4.88;;;19.20;59.60;;;;;;5001175;28;20058;-66
2023/07/08 01:38:19;;;;;;;8.68;5.70;;;19.20;59.50;;;;;;5003594;28;20053;-66
2023/07/08 01:40:57;;;;;;;8.00;5.32;;;19.20;59.50;;;;;;4984790;28;20053;-66
2023/07/08 01:43:24;;;;;;;6.80;5.20;;;19.20;59.50;;;;;;4983315;28;20444;-67
2023/07/08 01:45:52;;;;;;;11.23;5.57;;;19.20;59.40;;;;;;5001077;28;20132;-67
2023/07/08 01:48:22;;;;;;;8.52;5.18;;;19.20;59.20;;;;;;5002167;28;20529;-67
2023/07/08 01:50:55;;;;;;;8.27;5.47;;;19.30;59.00;;;;;;5005751;28;20056;-66
2023/07/08 01:53:30;;;;;;;8.63;5.22;;;19.20;59.30;;;;;;5013797;28;20053;-67
2023/07/08 01:55:59;;;;;;;8.95;4.60;;;19.10;59.60;;;;;;4983036;28;20046;-68
2023/07/08 01:58:27;;;;;;;7.93;5.20;;;19.10;59.90;;;;;;4997645;28;20987;-68
2023/07/08 02:00:55;;;;;;;7.18;4.88;;;19.00;60.10;;;;;;4992131;28;20125;-66
2023/07/08 02:03:24;;;;;;;7.53;5.03;;;19.00;60.40;;;;;;5012111;28;20053;-65
2023/07/08 02:05:51;;;;;;;7.53;5.53;;;18.90;60.70;;;;;;4985720;28;20054;-67
2023/07/08 02:08:18;;;;;;;7.28;5.28;;;18.80;60.90;;;;;;4979436;28;20055;-67
2023/07/08 02:10:49;;;;;;;9.07;5.63;;;18.80;61.00;;;;;;4993080;28;20082;-67
2023/07/08 02:13:17;;;;;;;8.80;6.00;;;18.80;61.00;;;;;;4984153;28;20060;-67
2023/07/08 02:15:44;;;;;;;8.13;5.43;;;18.70;61.10;;;;;;4990931;28;20050;-66
2023/07/08 02:18:11;;;;;;;8.35;5.10;;;18.70;61.20;;;;;;4982944;28;20457;-66
2023/07/08 02:20:38;;;;;;;7.93;5.60;;;18.60;61.30;;;;;;5012608;28;20057;-67
2023/07/08 02:23:05;;;;;;;8.00;5.18;;;18.70;61.20;;;;;;4991438;28;20068;-67
2023/07/08 02:25:32;;;;;;;8.52;5.43;;;18.70;61.10;;;;;;4990312;28;20047;-68
2023/07/08 02:27:59;;;;;;;7.53;5.03;;;18.60;61.20;;;;;;4994768;28;20046;-67
2023/07/08 02:30:28;;;;;;;7.53;5.18;;;18.60;61.50;;;;;;4992375;28;20053;-71
2023/07/08 02:32:57;;;;;;;8.13;4.80;;;18.60;61.70;;;;;;4993165;28;20057;-66
2023/07/08 02:35:26;;;;;;;8.95;5.00;;;18.50;62.00;;;;;;4995212;28;20065;-66
2023/07/08 02:37:53;;;;;;;7.50;4.85;;;18.40;62.10;;;;;;5017688;28;20045;-67
2023/07/08 02:40:20;;;;;;;6.15;4.40;;;18.40;62.00;;;;;;5011184;28;20049;-66
2023/07/08 02:42:47;;;;;;;7.38;5.15;;;18.50;61.90;;;;;;5011804;28;20052;-66
2023/07/08 02:45:14;;;;;;;9.80;5.45;;;18.40;62.10;;;;;;5011745;28;20053;-66
2023/07/08 02:47:42;;;;;;;9.45;5.70;;;18.40;62.20;;;;;;5013099;28;20076;-67
2023/07/08 02:50:11;;;;;;;8.35;6.15;;;18.40;61.90;;;;;;5013242;28;20053;-69
2023/07/08 02:52:38;;;;;;;9.82;6.28;;;18.40;62.00;;;;;;4998118;28;20539;-67
2023/07/08 02:55:06;;;;;;;10.40;6.22;;;18.30;62.10;;;;;;5005833;28;20134;-67
2023/07/08 02:57:33;;;;;;;8.90;5.90;;;18.30;61.70;;;;;;4994471;28;20045;-67
2023/07/08 03:00:00;;;;;;;8.82;6.13;;;18.30;61.70;;;;;;5012969;28;20069;-67
2023/07/08 03:02:28;;;;;;;10.20;6.38;;;18.30;61.40;;;;;;4992051;28;20061;-67
2023/07/08 03:04:58;;;;;;;9.40;5.85;;;18.40;61.10;;;;;;5010361;28;20050;-66
2023/07/08 03:07:26;;;;;;;9.07;6.43;;;18.50;60.90;;;;;;5014169;28;20050;-68
2023/07/08 03:09:53;;;;;;;8.73;5.78;;;18.40;61.10;;;;;;5013684;28;20116;-67
2023/07/08 03:12:20;;;;;;;9.15;5.95;;;18.30;61.30;;;;;;5012795;28;20038;-67
2023/07/08 03:14:47;;;;;;;8.32;5.50;;;18.30;61.50;;;;;;5009304;28;20470;-67
2023/07/08 03:17:17;;;;;;;8.18;5.72;;;18.30;61.30;;;;;;4994922;28;20379;-66
2023/07/08 03:19:44;;;;;;;;;;;18.30;61.30;;;;;;5014035;28;20053;-67
2023/07/08 03:22:12;;;;;;;8.02;5.75;;;18.20;61.50;;;;;;5015952;28;20356;-67
2023/07/08 03:24:45;;;;;;;9.25;5.75;;;18.30;61.20;;;;;;4998263;28;20049;-67
2023/07/08 03:27:14;;;;;;;9.85;6.10;;;18.20;61.30;;;;;;4966002;28;20295;-68
2023/07/08 03:29:41;;;;;;;8.63;5.30;;;18.10;61.60;;;;;;4979030;28;20141;-68
2023/07/08 03:32:10;;;;;;;9.68;5.43;;;18.10;61.70;;;;;;4973595;28;20065;-67
2023/07/08 03:34:37;;;;;;;9.23;5.65;;;18.10;61.90;;;;;;4990794;28;20050;-67
2023/07/08 03:37:05;;;;;;;10.32;6.07;;;18.10;61.90;;;;;;5003547;28;20491;-68
2023/07/08 03:39:33;;;;;;;10.00;5.35;;;18.10;61.60;;;;;;5014687;28;21608;-67
2023/07/08 03:42:00;;;;;;;8.75;5.03;;;18.00;61.70;;;;;;4997503;28;20053;-67
2023/07/08 03:44:27;;;;;;;8.13;5.25;;;18.10;61.50;;;;;;4996873;28;20128;-67
2023/07/08 03:46:54;;;;;;;7.90;5.50;;;18.10;61.50;;;;;;4996116;28;20099;-68
2023/07/08 03:49:23;;;;;;;8.77;5.30;;;18.20;61.40;;;;;;4996828;28;20053;-67
2023/07/08 03:51:53;;;;;;;8.95;5.28;;;18.10;61.30;;;;;;4980933;28;20678;-66
2023/07/08 03:54:21;;;;;;;8.35;5.05;;;18.20;61.20;;;;;;5010484;28;20060;-67
2023/07/08 03:56:50;;;;;;;9.30;5.68;;;18.10;61.30;;;;;;4999549;28;20047;-67
2023/07/08 03:59:17;;;;;;;7.93;5.00;;;18.10;61.30;;;;;;5000225;28;20049;-67
2023/07/08 04:01:46;;;;;;;8.70;5.75;;;18.10;61.20;;;;;;4990171;28;20045;-65
2023/07/08 04:04:16;;;;;;;7.47;5.07;;;18.10;61.70;;;;;;5017298;28;20127;-68
2023/07/08 04:06:45;;;;;;;9.05;5.10;;;18.10;61.90;;;;;;4999321;28;20050;-67
2023/07/08 04:09:13;;;;;;;8.60;5.15;;;18.10;61.90;;;;;;5015872;28;20049;-68
2023/07/08 04:11:40;;;;;;;7.78;5.00;;;18.10;61.70;;;;;;5011007;28;20504;-66
2023/07/08 04:14:10;;;;;;;9.15;5.40;;;18.10;61.70;;;;;;5012492;28;20076;-66
2023/07/08 04:16:45;;;;;;;7.63;5.07;;;18.10;61.70;;;;;;5010738;28;20057;-68
2023/07/08 04:19:14;;;;;;;6.88;5.22;;;18.10;61.80;;;;;;5015702;28;20054;-67
2023/07/08 04:21:42;;;;;;;9.48;5.80;;;18.20;61.80;;;;;;5016206;28;20134;-68
2023/07/08 04:24:11;;;;;;;7.72;5.75;;;18.20;61.50;;;;;;5018728;28;20409;-66
2023/07/08 04:26:39;;;;;;;9.82;5.57;;;18.30;61.30;;;;;;5014807;28;20475;-67
2023/07/08 04:29:11;;;;;;;6.78;4.78;;;18.30;61.10;;;;;;5017103;28;20081;-67
2023/07/08 04:31:38;;;;;;;8.20;5.15;;;18.30;61.20;;;;;;5015695;28;20119;-65
2023/07/08 04:34:06;;;;;;;8.45;5.53;;;18.30;61.40;;;;;;5018082;28;20058;-67
2023/07/08 04:36:33;;;;;;;7.57;5.35;;;18.20;61.30;;;;;;5008996;28;20050;-65
2023/07/08 04:39:01;;;;;;;8.82;5.03;;;18.20;61.40;;;;;;5002721;28;20545;-67
2023/07/08 04:41:27;;;;;;;9.10;5.68;;;18.30;61.20;;;;;;5018079;28;20409;-67
2023/07/08 04:43:57;;;;;;;9.15;5.72;;;18.30;61.30;;;;;;5018536;28;20053;-67
2023/07/08 04:46:34;;;;;;;8.15;5.35;;;18.40;61.10;;;;;;5014278;28;20053;-67
2023/07/08 04:49:02;;;;;;;7.72;5.18;;;18.40;60.90;;;;;;5013153;28;20612;-68
2023/07/08 04:51:30;;;;;;;9.10;5.85;;;18.40;60.90;;;;;;5013020;28;20053;-66
2023/07/08 04:53:57;;;;;;;8.63;5.70;;;18.40;61.00;;;;;;5012547;28;20054;-67
2023/07/08 04:56:26;;;;;;;7.60;5.28;;;18.50;61.20;;;;;;5011699;28;20134;-67
2023/07/08 04:58:53;;;;;;;7.82;5.32;;;18.50;61.10;;;;;;5019253;28;20053;-67
2023/07/08 05:01:20;;;;;;;7.68;5.15;;;18.60;61.30;;;;;;5014349;28;20050;-66
2023/07/08 05:03:48;;;;;;;10.27;6.10;;;18.60;61.10;;;;;;5001275;28;20049;-67
2023/07/08 05:06:15;;;;;;;8.23;5.38;;;18.60;61.10;;;;;;5016578;28;20045;-67
2023/07/08 05:08:42;;;;;;;8.05;5.40;;;18.60;61.00;;;;;;5014235;28;20061;-66
2023/07/08 05:11:08;;;;;;;8.65;5.15;;;18.60;61.10;;;;;;5016425;28;20401;-65
2023/07/08 05:13:35;;;;;;;8.05;5.40;;;18.60;60.90;;;;;;5016442;28;20045;-66
2023/07/08 05:16:02;;;;;;;8.75;5.38;;;18.70;60.80;;;;;;5014907;28;20055;-67
2023/07/08 05:18:32;;;;;;;10.82;5.40;;;18.80;61.30;;;;;;5017093;28;20093;-66
2023/07/08 05:21:01;;;;;;;8.30;5.63;;;18.90;61.10;;;;;;5009880;28;20103;-67
2023/07/08 05:23:28;;;;;;;8.77;6.03;;;19.00;60.90;;;;;;5010400;28;20078;-67
2023/07/08 05:25:55;;;;;;;9.25;5.28;;;19.00;60.20;;;;;;4981920;28;20056;-67
2023/07/08 05:28:24;;;;;;;7.90;5.03;;;19.00;60.40;;;;;;5017361;28;20065;-66
2023/07/08 05:30:54;;;;;;;8.20;5.55;;;19.10;60.20;;;;;;5009708;28;20052;-67
2023/07/08 05:33:21;;;;;;;8.50;5.07;;;19.20;60.00;;;;;;5006869;28;20129;-65
2023/07/08 05:35:49;;;;;;;7.78;5.15;;;19.20;60.30;;;;;;5016678;28;20052;-67
2023/07/08 05:38:17;;;;;;;8.13;5.47;;;19.20;60.00;;;;;;5019912;28;20058;-69
2023/07/08 05:40:50;;;;;;;7.63;5.57;;;19.30;59.90;;;;;;5015599;28;20100;-67
2023/07/08 05:43:17;;;;;;;7.60;5.50;;;19.40;59.70;;;;;;5013976;28;20472;-67
2023/07/08 05:45:44;;;;;;;8.43;5.47;;;19.40;59.80;;;;;;5012216;28;20056;-67
2023/07/08 05:48:11;;;;;;;8.32;5.20;;;19.40;59.70;;;;;;5018654;28;20436;-67
2023/07/08 05:50:38;;;;;;;7.47;5.22;;;19.40;59.80;;;;;;5009960;28;20093;-67
2023/07/08 05:53:05;;;;;;;9.40;5.45;;;19.50;59.90;;;;;;5014225;28;20111;-65
2023/07/08 05:55:33;;;;;;;8.82;5.93;;;19.60;60.20;;;;;;5013774;28;20847;-66
2023/07/08 05:58:00;;;;;;;7.63;5.20;;;19.60;60.10;;;;;;5016524;28;20046;-67
2023/07/08 06:00:27;;;;;;;7.15;4.80;;;19.80;60.00;;;;;;5012495;28;20069;-66
2023/07/08 06:02:55;;;;;;;8.88;5.22;;;19.90;59.90;;;;;;5004425;28;20050;-65
2023/07/08 06:05:22;;;;;;;9.02;5.45;;;20.00;59.70;;;;;;5014356;28;20105;-66
2023/07/08 06:07:49;;;;;;;7.75;4.85;;;20.00;59.80;;;;;;4993126;28;20050;-67
2023/07/08 06:10:18;;;;;;;9.05;5.60;;;20.10;59.80;;;;;;5008137;28;20069;-66
2023/07/08 06:12:54;;;;;;;7.47;5.03;;;20.10;59.60;;;;;;5014546;28;20046;-67
2023/07/08 06:15:21;;;;;;;7.82;5.40;;;20.10;59.50;;;;;;4981672;28;20052;-68
2023/07/08 06:17:53;;;;;;;7.07;5.55;;;20.20;59.50;;;;;;4955351;28;20038;-68
2023/07/08 06:20:22;;;;;;;7.72;5.10;;;20.20;59.50;;;;;;4980527;28;20155;-67
2023/07/08 06:22:49;;;;;;;21.08;14.77;;;20.20;59.50;;;;;;4977817;28;20069;-67
2023/07/08 06:25:16;;;;;;;31.00;22.88;;;20.30;59.20;;;;;;4999283;28;20133;-66
2023/07/08 06:27:43;;;;;;;35.65;26.48;;;20.30;59.20;;;;;;5013274;28;20077;-68
2023/07/08 06:30:12;;;;;;;36.13;27.77;;;20.40;59.10;;;;;;5014967;28;20424;-68
2023/07/08 06:32:39;;;;;;;32.67;24.25;;;20.40;59.40;;;;;;5011626;28;20054;-68
2023/07/08 06:35:06;;;;;;;32.38;23.88;;;20.40;59.70;;;;;;5013570;28;20136;-67
2023/07/08 06:37:33;;;;;;;27.58;21.85;;;20.50;59.50;;;;;;5015393;28;20070;-67
2023/07/08 06:40:00;;;;;;;27.83;19.52;;;20.60;59.30;;;;;;5013881;28;20049;-68
2023/07/08 06:42:29;;;;;;;18.02;13.23;;;20.80;59.20;;;;;;5012437;28;20508;-67
2023/07/08 06:45:06;;;;;;;17.17;12.90;;;20.90;59.20;;;;;;4994255;28;20061;-67
2023/07/08 06:47:34;;;;;;;14.10;10.57;;;21.10;59.00;;;;;;5012399;28;20061;-67
2023/07/08 06:50:02;;;;;;;14.23;10.55;;;21.10;58.60;;;;;;5017244;28;20060;-67
2023/07/08 06:52:33;;;;;;;13.43;9.80;;;21.20;58.20;;;;;;5011679;28;20242;-68
2023/07/08 06:55:01;;;;;;;13.57;9.95;;;21.30;57.80;;;;;;5012404;28;20070;-68
2023/07/08 06:57:28;;;;;;;12.55;8.90;;;21.40;57.60;;;;;;5012464;28;20034;-69
2023/07/08 06:59:55;;;;;;;13.55;9.45;;;21.60;57.10;;;;;;5016419;28;20054;-68
2023/07/08 07:02:22;;;;;;;10.02;7.15;;;21.70;56.60;;;;;;5005953;28;20042;-68
2023/07/08 07:04:50;;;;;;;8.52;6.50;;;21.90;56.30;;;;;;5015069;28;20078;-67
2023/07/08 07:07:17;;;;;;;10.15;6.53;;;22.00;55.40;;;;;;5014372;28;20731;-67
2023/07/08 07:09:44;;;;;;;8.63;6.15;;;22.10;55.20;;;;;;5013097;28;20191;-66
2023/07/08 07:12:11;;;;;;;9.00;5.60;;;22.20;54.50;;;;;;5009233;28;20727;-68
2023/07/08 07:14:40;;;;;;;7.85;5.72;;;22.30;54.20;;;;;;5013656;28;20489;-67
2023/07/08 07:17:07;;;;;;;7.00;5.75;;;22.30;54.50;;;;;;4995214;28;20083;-67
2023/07/08 07:19:34;;;;;;;8.18;5.70;;;22.40;54.60;;;;;;4995133;28;20136;-67
2023/07/08 07:22:02;;;;;;;8.18;6.05;;;22.50;54.40;;;;;;5011661;28;20058;-68
2023/07/08 07:24:29;;;;;;;7.70;5.50;;;22.60;54.20;;;;;;5011612;28;20052;-66
2023/07/08 07:26:56;;;;;;;7.40;5.53;;;22.80;53.70;;;;;;5009348;28;20053;-68
2023/07/08 07:29:24;;;;;;;7.28;5.05;;;22.90;52.80;;;;;;5006806;28;20045;-68
2023/07/08 07:31:52;;;;;;;6.65;4.70;;;23.00;52.30;;;;;;4998937;28;20054;-67
2023/07/08 07:34:19;;;;;;;6.82;4.60;;;23.00;51.80;;;;;;5006564;28;20058;-68
2023/07/08 07:36:46;;;;;;;6.93;5.28;;;23.00;51.70;;;;;;4996895;28;20493;-67
2023/07/08 07:39:14;;;;;;;7.05;4.50;;;22.90;52.20;;;;;;4998638;28;20504;-68
2023/07/08 07:41:41;;;;;;;9.18;4.88;;;23.00;51.80;;;;;;4991234;28;20055;-68
2023/07/08 07:44:08;;;;;;;7.47;4.82;;;23.10;52.00;;;;;;4975786;28;20047;-67
2023/07/08 07:46:35;;;;;;;7.20;4.28;;;23.20;51.40;;;;;;4995177;28;20051;-68
2023/07/08 07:49:02;;;;;;;7.03;4.78;;;23.40;51.30;;;;;;4992415;28;20068;-68
2023/07/08 07:51:29;;;;;;;7.03;4.82;;;23.60;51.20;;;;;;4997159;28;20050;-69
2023/07/08 07:53:55;;;;;;;6.10;4.40;;;23.80;50.70;;;;;;4995649;28;20046;-67
2023/07/08 07:56:24;;;;;;;6.82;4.68;;;24.00;49.90;;;;;;4991148;28;20133;-67
2023/07/08 07:58:51;;;;;;;6.70;5.00;;;24.10;49.70;;;;;;4999535;28;20049;-66
2023/07/08 08:01:19;;;;;;;7.53;4.65;;;24.20;49.00;;;;;;4996612;28;20115;-73
2023/07/08 08:03:46;;;;;;;6.47;4.38;;;24.30;48.20;;;;;;4992681;28;20045;-71
2023/07/08 08:06:13;;;;;;;6.82;4.95;;;24.40;47.80;;;;;;4992795;28;20046;-73
2023/07/08 08:08:40;;;;;;;7.20;4.80;;;24.40;48.00;;;;;;4994758;28;20050;-74
2023/07/08 08:11:07;;;;;;;5.93;4.55;;;24.50;49.00;;;;;;5000877;28;20038;-76
2023/07/08 08:13:35;;;;;;;7.45;5.03;;;24.60;48.60;;;;;;4991107;28;20133;-73
2023/07/08 08:16:03;;;;;;;7.47;4.60;;;24.80;48.10;;;;;;4990396;28;20046;-73
2023/07/08 08:18:30;;;;;;;6.25;4.78;;;24.90;48.60;;;;;;4993278;28;20813;-74
2023/07/08 08:20:58;;;;;;;7.35;4.90;;;25.20;48.10;;;;;;4990327;28;20050;-74
2023/07/08 08:23:25;;;;;;;7.28;5.10;;;25.50;48.40;;;;;;4991965;28;20493;-71
2023/07/08 08:25:52;;;;;;;6.30;4.95;;;25.60;48.10;;;;;;5001797;28;20052;-74
2023/07/08 08:28:19;;;;;;;8.18;5.15;;;25.60;48.20;;;;;;5014308;28;20042;-73
2023/07/08 08:30:50;;;;;;;6.97;4.95;;;25.60;47.80;;;;;;5015283;28;20034;-72
2023/07/08 08:33:17;;;;;;;8.30;5.53;;;25.60;47.60;;;;;;5014588;28;20493;-74
2023/07/08 08:35:44;;;;;;;6.40;4.70;;;25.60;47.80;;;;;;5021707;28;20097;-74
2023/07/08 08:38:12;;;;;;;6.82;5.25;;;25.60;48.10;;;;;;5017159;28;20050;-72
2023/07/08 08:40:41;;;;;;;7.22;5.13;;;25.60;48.30;;;;;;5011707;28;20038;-75
2023/07/08 08:43:14;;;;;;;7.35;5.15;;;25.60;48.20;;;;;;5011083;28;20087;-74
2023/07/08 08:45:55;;;;;;;6.50;4.90;;;25.70;47.90;;;;;;5014727;28;20046;-73
2023/07/08 08:48:26;;;;;;;8.13;5.22;;;25.70;48.10;;;;;;5014133;28;20049;-74
2023/07/08 08:51:01;;;;;;;8.35;5.13;;;25.70;47.70;;;;;;4999635;28;20065;-73
2023/07/08 08:53:28;;;;;;;7.00;5.10;;;25.70;48.20;;;;;;5013465;28;20052;-72
2023/07/08 08:56:00;;;;;;;7.15;4.90;;;25.70;48.50;;;;;;5011677;28;20054;-73
2023/07/08 08:58:35;;;;;;;6.90;5.10;;;25.70;48.00;;;;;;5017299;28;20080;-72
2023/07/08 09:01:07;;;;;;;8.52;5.10;;;25.70;48.30;;;;;;4978566;28;20058;-72
2023/07/08 09:03:40;;;;;;;7.43;4.93;;;25.80;48.30;;;;;;4978165;28;20125;-73
2023/07/08 09:06:18;;;;;;;7.30;5.28;;;25.80;48.10;;;;;;4981460;28;20051;-72
2023/07/08 09:08:45;;;;;;;7.78;5.10;;;25.90;47.70;;;;;;4980892;28;20073;-74
2023/07/08 09:11:21;;;;;;;7.80;4.93;;;26.00;47.40;;;;;;5010851;28;20104;-73
2023/07/08 09:13:49;;;;;;;8.38;4.88;;;26.10;47.00;;;;;;5016190;28;20108;-73
2023/07/08 09:16:26;;;;;;;7.15;5.10;;;26.20;47.90;;;;;;5010125;28;20348;-72
2023/07/08 09:19:00;;;;;;;6.53;4.95;;;26.20;47.70;;;;;;5011220;28;20049;-73
2023/07/08 09:21:32;;;;;;;6.80;4.60;;;26.30;49.00;;;;;;5014121;28;20137;-74
2023/07/08 09:24:05;;;;;;;6.43;4.55;;;26.30;48.10;;;;;;5012938;28;20133;-74
2023/07/08 09:26:32;;;;;;;7.72;5.30;;;26.20;47.20;;;;;;4995249;28;20109;-73
2023/07/08 09:28:59;;;;;;;7.20;4.97;;;26.20;47.10;;;;;;5012051;28;20417;-72
2023/07/08 09:31:29;;;;;;;6.95;4.63;;;26.30;46.50;;;;;;5005189;28;20046;-72
2023/07/08 09:34:08;;;;;;;6.07;4.43;;;26.30;45.90;;;;;;5011405;28;20041;-73
2023/07/08 09:36:39;;;;;;;7.05;4.57;;;26.30;45.70;;;;;;5011256;28;20053;-72
2023/07/08 09:39:11;;;;;;;8.13;4.68;;;26.40;45.10;;;;;;5009057;28;20053;-72
2023/07/08 09:41:39;;;;;;;9.10;5.53;;;26.50;45.40;;;;;;5014704;28;20050;-74
2023/07/08 09:44:26;;;;;;;8.32;6.45;;;26.50;45.30;;;;;;5009137;28;20501;-73
2023/07/08 09:46:55;;;;;;;8.43;5.70;;;26.50;44.70;;;;;;5011887;28;20049;-73
2023/07/08 09:49:28;;;;;;;9.02;6.80;;;26.50;45.10;;;;;;5013767;28;20521;-73
2023/07/08 09:51:55;;;;;;;11.60;8.90;;;26.60;44.70;;;;;;5011345;28;20062;-73
2023/07/08 09:54:25;;;;;;;10.70;8.18;;;26.70;44.70;;;;;;5013545;28;20037;-74
2023/07/08 09:57:01;;;;;;;12.65;9.32;;;26.80;44.40;;;;;;5012619;28;20053;-74
2023/07/08 09:59:34;;;;;;;14.63;12.13;;;27.20;44.40;;;;;;4994660;28;20058;-72
2023/07/08 10:02:19;;;;;;;18.27;15.15;;;27.60;43.60;;;;;;4999443;28;20065;-73
2023/07/08 10:04:46;;;;;;;18.20;14.85;;;27.90;43.90;;;;;;5015842;28;20180;-74
2023/07/08 10:07:17;;;;;;;17.00;15.20;;;28.10;43.40;;;;;;5011425;28;20141;-73
2023/07/08 10:09:47;;;;;;;15.23;13.10;;;28.20;43.40;;;;;;5008018;28;20057;-74
2023/07/08 10:12:16;;;;;;;13.45;11.80;;;28.40;42.00;;;;;;5000202;28;20414;-73
2023/07/08 10:14:48;;;;;;;12.35;10.48;;;28.70;42.30;;;;;;4989339;28;20108;-72
2023/07/08 10:17:19;;;;;;;12.15;10.65;;;28.80;41.80;;;;;;4994413;28;20517;-74
2023/07/08 10:19:46;;;;;;;10.45;9.35;;;29.10;41.90;;;;;;4991354;28;20521;-73
2023/07/08 10:22:23;;;;;;;10.68;8.25;;;29.10;40.80;;;;;;4992466;28;20054;-72
2023/07/08 10:25:02;;;;;;;9.35;7.55;;;29.40;40.50;;;;;;5013609;28;20056;-73
2023/07/08 10:27:37;;;;;;;8.15;6.55;;;29.50;41.00;;;;;;5016922;28;20054;-74
2023/07/08 10:30:19;;;;;;;8.00;6.38;;;29.60;39.90;;;;;;5020100;28;20049;-75
2023/07/08 10:33:03;;;;;;;9.52;7.20;;;29.80;39.40;;;;;;5023996;28;20045;-74
2023/07/08 10:35:34;;;;;;;9.43;7.60;;;29.80;40.30;;;;;;5026915;28;20049;-75
2023/07/08 10:38:19;;;;;;;8.23;7.15;;;29.90;40.40;;;;;;5021844;28;20053;-74
2023/07/08 10:40:51;;;;;;;9.25;6.93;;;30.00;40.20;;;;;;5025374;28;20037;-73
2023/07/08 10:43:44;;;;;;;8.13;5.90;;;30.10;39.30;;;;;;5025117;28;20056;-73
2023/07/08 10:46:22;;;;;;;8.38;6.00;;;30.10;38.60;;;;;;5009339;28;20054;-71
2023/07/08 10:49:07;;;;;;;8.50;6.00;;;30.40;36.50;;;;;;5014665;28;20056;-74
2023/07/08 10:51:41;;;;;;;8.48;6.00;;;30.50;37.40;;;;;;5026364;28;20046;-74
2023/07/08 10:54:23;;;;;;;7.93;6.10;;;30.30;38.00;;;;;;5017484;28;20062;-74
2023/07/08 10:56:55;;;;;;;7.55;5.65;;;30.20;38.10;;;;;;5024164;28;20470;-75
2023/07/08 10:59:35;;;;;;;7.72;5.40;;;30.30;38.10;;;;;;5027806;28;20073;-74
2023/07/08 11:02:32;;;;;;;8.57;6.03;;;30.30;36.90;;;;;;5019724;28;20053;-75
2023/07/08 11:05:15;;;;;;;7.90;5.55;;;30.40;35.80;;;;;;5004094;28;20056;-73
2023/07/08 11:07:46;;;;;;;10.25;7.40;;;30.50;36.90;;;;;;5002046;28;20053;-75
2023/07/08 11:10:19;;;;;;;10.32;8.63;;;30.60;35.80;;;;;;5007612;28;20397;-74
2023/07/08 11:12:48;;;;;;;12.13;8.60;;;30.60;36.40;;;;;;5017163;28;20046;-74
2023/07/08 11:15:20;;;;;;;10.07;7.75;;;30.60;36.60;;;;;;5020136;28;20106;-73
2023/07/08 11:17:52;;;;;;;8.82;7.35;;;30.70;35.80;;;;;;5014396;28;20046;-73
2023/07/08 11:20:26;;;;;;;8.75;6.78;;;30.70;36.60;;;;;;5017294;28;20077;-77
2023/07/08 11:22:59;;;;;;;10.48;7.00;;;30.80;36.20;;;;;;5008677;28;20069;-73
2023/07/08 11:25:28;;;;;;;9.93;6.95;;;30.90;36.50;;;;;;5000390;28;20097;-74
2023/07/08 11:27:58;;;;;;;10.85;8.32;;;30.90;36.80;;;;;;4997541;28;20925;-74
2023/07/08 11:30:29;;;;;;;8.63;7.68;;;31.00;36.00;;;;;;5022956;28;20053;-73
2023/07/08 11:33:03;;;;;;;9.90;7.47;;;31.00;36.20;;;;;;5000208;28;20501;-73
2023/07/08 11:35:37;;;;;;;9.43;7.07;;;31.10;36.60;;;;;;5020943;28;20069;-72
2023/07/08 11:38:04;;;;;;;7.65;6.40;;;31.10;36.80;;;;;;5002589;28;20136;-74
2023/07/08 11:40:32;;;;;;;8.45;6.40;;;31.20;36.50;;;;;;5015230;28;20049;-74
2023/07/08 11:43:05;;;;;;;6.88;5.55;;;31.30;35.90;;;;;;5017726;28;20064;-72
2023/07/08 11:45:35;;;;;;;7.15;5.63;;;31.30;35.60;;;;;;5018950;28;20057;-73
2023/07/08 11:48:13;;;;;;;8.95;5.90;;;31.30;35.30;;;;;;5017332;28;20057;-72
2023/07/08 11:50:43;;;;;;;8.38;6.05;;;31.40;35.20;;;;;;5015846;28;20050;-73
2023/07/08 11:53:12;;;;;;;7.95;5.95;;;31.50;35.60;;;;;;5019566;28;20149;-73
2023/07/08 11:55:44;;;;;;;7.32;5.43;;;31.50;35.40;;;;;;5016199;28;20497;-73
2023/07/08 11:58:21;;;;;;;9.20;6.18;;;31.40;34.30;;;;;;5021320;28;20057;-73
2023/07/08 12:00:55;;;;;;;7.85;5.70;;;31.50;35.50;;;;;;5019757;28;20543;-73
2023/07/08 12:03:23;;;;;;;7.72;5.47;;;31.50;35.40;;;;;;5019638;28;20048;-74
2023/07/08 12:05:51;;;;;;;7.40;5.63;;;31.50;35.00;;;;;;5009892;28;20058;-73
2023/07/08 12:08:20;;;;;;;8.38;5.55;;;31.50;35.40;;;;;;5016872;28;20145;-72
2023/07/08 12:10:50;;;;;;;7.38;5.43;;;31.50;35.30;;;;;;5019108;28;20413;-73
2023/07/08 12:13:22;;;;;;;7.22;5.28;;;31.60;34.90;;;;;;5013767;28;20050;-74
2023/07/08 12:15:50;;;;;;;7.70;6.50;;;31.60;33.90;;;;;;5008552;28;20061;-73
2023/07/08 12:18:22;;;;;;;7.70;5.60;;;31.60;34.30;;;;;;5013764;28;20137;-73
2023/07/08 12:20:54;;;;;;;8.43;6.10;;;31.70;34.50;;;;;;5005709;28;20041;-74
2023/07/08 12:23:23;;;;;;;8.23;5.82;;;31.70;34.60;;;;;;5011110;28;20058;-74
2023/07/08 12:25:51;;;;;;;6.57;5.20;;;31.70;34.30;;;;;;4993630;28;20050;-73
2023/07/08 12:28:26;;;;;;;7.60;5.73;;;31.70;35.10;;;;;;5001490;28;20046;-74
2023/07/08 12:30:54;;;;;;;7.22;5.53;;;31.60;35.00;;;;;;5011741;28;20057;-73
2023/07/08 12:33:27;;;;;;;7.15;5.57;;;31.50;34.80;;;;;;5005961;28;20479;-73
2023/07/08 12:35:57;;;;;;;7.93;6.13;;;31.50;33.70;;;;;;4986029;28;20128;-74
2023/07/08 12:38:29;;;;;;;8.82;7.07;;;31.60;34.10;;;;;;5014291;28;20081;-73
2023/07/08 12:40:57;;;;;;;9.32;7.32;;;31.80;34.10;;;;;;4998626;28;20105;-74
2023/07/08 12:43:31;;;;;;;9.07;7.57;;;31.80;34.70;;;;;;5002452;28;20052;-73
2023/07/08 12:45:59;;;;;;;8.77;7.50;;;31.70;33.50;;;;;;5005114;28;20077;-73
2023/07/08 12:48:29;;;;;;;8.90;6.95;;;31.70;34.80;;;;;;5010069;28;20571;-75
2023/07/08 12:50:57;;;;;;;7.97;6.38;;;31.60;34.50;;;;;;5018720;28;20056;-74
2023/07/08 12:53:24;;;;;;;;;;;31.60;35.20;;;;;;5020028;28;20069;-69
2023/07/08 12:55:55;;;;;;;9.40;6.75;;;31.50;33.50;;;;;;5018501;28;19921;-74
2023/07/08 12:58:44;;;;;;;6.80;5.80;;;31.50;32.90;;;;;;5020327;28;20092;-74